createdAt,value
2022-07-26T00:01:41.228Z,4.30
2022-07-26T00:07:01.827Z,4.55
2022-07-26T00:12:22.570Z,4.70
2022-07-26T00:17:43.243Z,4.55
2022-07-26T00:23:03.945Z,4.50
2022-07-26T00:28:24.676Z,4.00
2022-07-26T00:33:45.272Z,4.05
2022-07-26T00:39:06.348Z,4.20
2022-07-26T00:44:40.603Z,3.83
2022-07-26T00:50:01.724Z,4.70
2022-07-26T00:55:22.837Z,4.10
2022-07-26T01:00:43.741Z,4.10
2022-07-26T01:06:05.563Z,4.82
2022-07-26T01:11:26.224Z,4.38
2022-07-26T01:16:47.443Z,4.50
2022-07-26T01:22:13.885Z,4.07
2022-07-26T01:27:39.424Z,4.20
2022-07-26T01:33:00.719Z,5.03
2022-07-26T01:38:27.556Z,4.32
2022-07-26T01:43:48.132Z,4.38
2022-07-26T01:49:09.435Z,4.63
2022-07-26T01:54:30.495Z,5.07
2022-07-26T01:59:51.052Z,4.07
2022-07-26T02:05:12.657Z,4.47
2022-07-26T02:10:52.749Z,4.18
2022-07-26T02:16:15.140Z,3.70
2022-07-26T02:21:35.854Z,5.03
2022-07-26T02:26:57.638Z,4.25
2022-07-26T02:32:18.843Z,4.40
2022-07-26T02:37:43.830Z,5.10
2022-07-26T02:43:07.409Z,5.93
2022-07-26T02:48:28.159Z,5.55
2022-07-26T02:53:48.711Z,5.70
2022-07-26T02:59:09.320Z,6.25
2022-07-26T03:04:30.455Z,7.25
2022-07-26T03:09:51.056Z,6.13
2022-07-26T03:15:12.233Z,8.00
2022-07-26T03:20:32.949Z,7.82
2022-07-26T03:25:53.814Z,8.30
2022-07-26T03:31:14.756Z,10.30
2022-07-26T03:36:35.362Z,10.75
2022-07-26T03:41:55.957Z,12.02
2022-07-26T03:47:16.798Z,13.02
2022-07-26T03:52:37.469Z,16.45
2022-07-26T03:57:58.453Z,21.98
2022-07-26T04:03:19.237Z,24.00
2022-07-26T04:08:40.106Z,34.63
2022-07-26T04:14:01.249Z,39.67
2022-07-26T04:19:21.963Z,46.22
2022-07-26T04:24:42.575Z,48.05
2022-07-26T04:30:04.768Z,52.08
2022-07-26T04:35:26.072Z,57.03
2022-07-26T04:40:47.138Z,59.63
2022-07-26T04:46:09.457Z,68.05
2022-07-26T04:51:30.022Z,67.25
2022-07-26T04:56:50.808Z,69.07
2022-07-26T05:02:11.644Z,66.93
2022-07-26T05:07:47.720Z,59.40
2022-07-26T05:13:08.710Z,52.83
2022-07-26T05:18:31.963Z,45.67
2022-07-26T05:24:07.983Z,38.20
2022-07-26T05:29:28.829Z,27.90
2022-07-26T05:34:49.865Z,23.63
2022-07-26T05:40:11.857Z,18.83
2022-07-26T05:45:32.620Z,18.42
2022-07-26T05:50:53.195Z,11.98
2022-07-26T05:56:13.843Z,9.45
2022-07-26T06:01:35.076Z,6.95
2022-07-26T06:06:56.829Z,6.13
2022-07-26T06:12:17.710Z,5.38
2022-07-26T06:17:41.308Z,5.05
2022-07-26T06:23:02.010Z,6.07
2022-07-26T06:28:22.684Z,5.50
2022-07-26T06:33:43.244Z,5.65
2022-07-26T06:39:04.941Z,5.68
2022-07-26T06:44:26.492Z,3.83
2022-07-26T06:49:47.247Z,4.95
2022-07-26T06:55:09.177Z,4.90
2022-07-26T07:00:33.224Z,4.72
2022-07-26T07:05:53.783Z,6.20
2022-07-26T07:11:14.394Z,8.20
2022-07-26T07:16:38.606Z,16.27
2022-07-26T07:21:59.701Z,18.13
2022-07-26T07:27:20.982Z,20.23
2022-07-26T07:32:41.489Z,20.83
2022-07-26T07:38:02.079Z,20.13
2022-07-26T07:43:22.580Z,20.58
2022-07-26T07:48:47.397Z,16.17
2022-07-26T07:54:09.395Z,13.35
2022-07-26T07:59:30.299Z,12.88
2022-07-26T08:04:51.022Z,13.82
2022-07-26T08:10:11.683Z,11.90
2022-07-26T08:15:32.541Z,13.25
2022-07-26T08:20:53.771Z,11.20
2022-07-26T08:26:14.381Z,7.60
2022-07-26T08:31:35.120Z,6.15
2022-07-26T08:37:16.077Z,5.05
2022-07-26T08:42:36.905Z,5.20
2022-07-26T08:53:40.125Z,4.72
2022-07-26T08:59:18.585Z,5.20
2022-07-26T09:10:09.458Z,3.13
2022-07-26T09:15:30.388Z,2.78
2022-07-26T09:20:51.272Z,2.95
2022-07-26T09:26:11.829Z,1.88
2022-07-26T09:31:33.106Z,1.63
2022-07-26T09:36:55.275Z,1.90
2022-07-26T09:42:28.489Z,2.28
2022-07-26T09:47:49.842Z,1.60
2022-07-26T09:53:13.246Z,1.50
2022-07-26T09:58:34.025Z,1.30
2022-07-26T10:03:55.250Z,1.50
2022-07-26T10:09:17.190Z,1.10
2022-07-26T10:14:45.874Z,1.40
2022-07-26T10:20:16.901Z,1.20
2022-07-26T10:25:49.114Z,0.80
2022-07-26T10:31:25.970Z,0.98
2022-07-26T10:36:57.825Z,0.90
2022-07-26T10:42:19.771Z,1.02
2022-07-26T10:48:15.603Z,1.10
2022-07-26T10:53:36.584Z,1.00
2022-07-26T10:58:57.555Z,1.02
2022-07-26T11:04:24.690Z,1.00
2022-07-26T11:09:45.420Z,1.20
2022-07-26T11:15:19.263Z,0.88
2022-07-26T11:20:41.145Z,0.70
2022-07-26T11:26:04.603Z,0.55
2022-07-26T11:31:49.412Z,0.90
2022-07-26T11:37:16.200Z,0.90
2022-07-26T11:42:37.288Z,0.80
2022-07-26T11:47:59.017Z,0.90
2022-07-26T11:53:23.263Z,1.13
2022-07-26T11:58:46.322Z,0.90
2022-07-26T12:04:19.492Z,0.82
2022-07-26T12:09:50.443Z,0.93
2022-07-26T12:15:12.592Z,0.60
2022-07-26T12:20:33.569Z,0.70
2022-07-26T12:25:54.208Z,0.90
2022-07-26T12:31:32.939Z,0.80
2022-07-26T12:36:54.010Z,0.60
2022-07-26T12:42:33.062Z,0.80
2022-07-26T12:47:57.136Z,0.82
2022-07-26T12:53:17.997Z,1.20
2022-07-26T12:58:38.666Z,1.02
2022-07-26T13:04:00.135Z,1.00
2022-07-26T13:09:20.862Z,1.10
2022-07-26T13:14:42.258Z,1.08
2022-07-26T13:20:02.891Z,0.90
2022-07-26T13:25:23.745Z,0.95
2022-07-26T13:30:45.898Z,1.08
2022-07-26T13:36:06.661Z,0.80
2022-07-26T13:41:27.530Z,0.95
2022-07-26T13:46:51.739Z,0.80
2022-07-26T13:52:16.674Z,0.85
2022-07-26T13:57:48.030Z,0.80
2022-07-26T14:03:17.463Z,0.82
2022-07-26T14:08:38.618Z,0.80
2022-07-26T14:13:59.356Z,0.68
2022-07-26T14:19:20.097Z,1.15
2022-07-26T14:24:40.916Z,0.50
2022-07-26T14:30:02.480Z,0.57
2022-07-26T14:35:23.054Z,0.60
2022-07-26T14:40:43.710Z,0.82
2022-07-26T14:46:04.866Z,0.70
2022-07-26T14:51:25.678Z,0.75
2022-07-26T14:56:48.213Z,0.80
2022-07-26T15:02:11.876Z,0.70
2022-07-26T15:07:32.697Z,0.60
2022-07-26T15:12:53.703Z,0.45
2022-07-26T15:18:14.420Z,0.70
2022-07-26T15:23:35.110Z,0.60
2022-07-26T15:28:56.052Z,0.55
2022-07-26T15:34:16.796Z,0.70
2022-07-26T15:39:37.474Z,0.50
2022-07-26T15:44:58.550Z,0.70
2022-07-26T15:50:19.193Z,0.50
2022-07-26T15:55:40.782Z,0.60
2022-07-26T16:01:01.625Z,0.55
2022-07-26T16:06:22.365Z,0.95
2022-07-26T16:11:43.029Z,0.60
2022-07-26T16:17:03.991Z,0.60
2022-07-26T16:22:25.052Z,0.73
2022-07-26T16:27:46.080Z,0.60
2022-07-26T16:33:06.894Z,0.38
2022-07-26T16:38:27.436Z,0.60
2022-07-26T16:43:48.101Z,0.40
2022-07-26T16:49:09.216Z,0.43
2022-07-26T16:54:31.143Z,0.50
2022-07-26T16:59:51.683Z,0.60
2022-07-26T17:05:12.448Z,0.80
2022-07-26T17:10:33.116Z,1.00
2022-07-26T17:15:54.257Z,0.55
2022-07-26T17:21:15.127Z,0.70
2022-07-26T17:26:36.465Z,0.57
2022-07-26T17:31:58.171Z,0.60
2022-07-26T17:37:18.772Z,0.50
2022-07-26T17:42:42.678Z,0.70
2022-07-26T17:48:06.397Z,0.80
2022-07-26T17:53:34.151Z,0.45
2022-07-26T17:58:55.906Z,0.63
2022-07-26T18:04:18.007Z,0.38
2022-07-26T18:09:38.672Z,0.60
2022-07-26T18:14:59.410Z,0.40
2022-07-26T18:20:20.127Z,0.40
2022-07-26T18:25:45.304Z,0.40
2022-07-26T18:31:06.180Z,0.50
2022-07-26T18:36:31.712Z,0.40
2022-07-26T18:41:52.340Z,0.63
2022-07-26T18:47:13.026Z,0.40
2022-07-26T18:52:33.893Z,0.63
2022-07-26T18:57:55.008Z,0.80
2022-07-26T19:03:16.696Z,1.35
2022-07-26T19:08:37.364Z,1.00
2022-07-26T19:13:58.033Z,1.25
2022-07-26T19:19:20.248Z,1.20
2022-07-26T19:24:40.922Z,1.20
2022-07-26T19:30:01.778Z,1.23
2022-07-26T19:35:23.007Z,1.40
2022-07-26T19:40:44.678Z,0.95
2022-07-26T19:46:05.830Z,0.80
2022-07-26T19:51:26.727Z,1.63
2022-07-26T19:56:47.725Z,2.47
2022-07-26T20:02:08.329Z,3.33
2022-07-26T20:07:29.406Z,3.10
2022-07-26T20:12:50.114Z,3.38
2022-07-26T20:18:10.926Z,4.93
2022-07-26T20:23:33.133Z,4.30
2022-07-26T20:28:55.332Z,6.28
2022-07-26T20:34:16.156Z,5.22
2022-07-26T20:39:36.864Z,4.85
2022-07-26T20:44:57.592Z,5.30
2022-07-26T20:50:19.171Z,5.65
2022-07-26T20:55:40.875Z,5.30
2022-07-26T21:01:01.666Z,4.65
2022-07-26T21:06:22.280Z,4.85
2022-07-26T21:11:45.508Z,4.40
2022-07-26T21:17:11.297Z,4.50
2022-07-26T21:22:33.308Z,4.30
2022-07-26T21:27:54.006Z,4.30
2022-07-26T21:33:14.970Z,4.53
2022-07-26T21:38:35.691Z,4.85
2022-07-26T21:43:56.195Z,5.13
2022-07-26T21:49:18.433Z,4.80
2022-07-26T21:54:39.161Z,4.90
2022-07-26T21:59:59.954Z,5.47
2022-07-26T22:05:35.750Z,6.18
2022-07-26T22:10:56.617Z,4.93
2022-07-26T22:16:17.535Z,5.72
2022-07-26T22:21:38.570Z,5.95
2022-07-26T22:26:59.495Z,6.45
2022-07-26T22:32:20.397Z,6.63
2022-07-26T22:37:41.510Z,7.82
2022-07-26T22:43:02.967Z,8.18
2022-07-26T22:48:23.900Z,9.95
2022-07-26T22:53:44.789Z,9.90
2022-07-26T22:59:05.456Z,11.45
2022-07-26T23:04:26.007Z,11.77
2022-07-26T23:09:48.656Z,11.30
2022-07-26T23:15:10.431Z,14.05
2022-07-26T23:20:31.105Z,14.63
2022-07-26T23:25:51.839Z,14.45
2022-07-26T23:31:14.705Z,14.45
2022-07-26T23:36:35.407Z,15.18
2022-07-26T23:41:56.335Z,15.45
2022-07-26T23:47:17.245Z,15.68
2022-07-26T23:52:38.291Z,15.85
2022-07-26T23:57:58.968Z,14.55
